»·PEaware :: DFGCW KSLC-KENV

DFGCW :: KSLC-KENV

FLIGHT INFORMATION

Flight Status: Arrived
Operator: Unknown
More flights by this operator :: More flights under this callsign
Pilot: Klaus A. (15485)
Aircraft: PILATUS PC-12 EAGLE
(PC12)
More flights by this aircraft type
Origin: KSLC Salt Lake City Intl
United States
Destination: KENV Wendover
United States
More flights between these airports :: More routes between these airports
Route: +SLC4 TCH V32 BVL
File this flight plan on PilotEdge
Remarks:
Altitude:
(Current/Filed)
12,000ft
Speed:
(Current/Filed)
230kts
Departed: 19-Apr-19 09:29 AM
Arrived: 19-Apr-19 10:06 AM
Distance/Time
Traveled:
94nm/0:37
Distance/Time
To Go:
Arrived

Flight Plot

Page will automatically refresh every two minutes.

Flight plan parsing failed; only flown route is shown


Map Options




Map Legend


Flown Route
Filed Route
Departure Airport
Arrival Airport
Navaid (VOR, NDB)
Fix

Horizontal Profiles

Position Reports

Time Latitude Longitude Heading Altitude Ground
Speed
19-Apr-19 09:00 40.775647 -111.958738 87 4232ft 0kts
19-Apr-19 09:01 40.775647 -111.958738 87 4232ft 0kts
19-Apr-19 09:02 40.775647 -111.958738 87 4232ft 0kts
19-Apr-19 09:03 40.775647 -111.958738 87 4232ft 0kts
19-Apr-19 09:04 40.775647 -111.958738 87 4232ft 0kts
19-Apr-19 09:05 40.775647 -111.958738 87 4232ft 0kts
19-Apr-19 09:06 40.775647 -111.958738 87 4232ft 0kts
19-Apr-19 09:07 40.775648 -111.958737 87 4232ft 0kts
19-Apr-19 09:08 40.775647 -111.958738 87 4232ft 0kts
19-Apr-19 09:08 40.775647 -111.958738 87 4232ft 0kts
19-Apr-19 09:10 40.775647 -111.958738 87 4232ft 0kts
19-Apr-19 09:11 40.775647 -111.958738 87 4232ft 0kts
19-Apr-19 09:12 40.775647 -111.958738 87 4232ft 0kts
19-Apr-19 09:13 40.775647 -111.958738 87 4232ft 0kts
19-Apr-19 09:13 40.775647 -111.958738 87 4232ft 0kts
19-Apr-19 09:15 40.775647 -111.958738 87 4232ft 0kts
19-Apr-19 09:15 40.775647 -111.958738 87 4232ft 0kts
19-Apr-19 09:17 40.775647 -111.958738 87 4232ft 0kts
19-Apr-19 09:17 40.775647 -111.958738 87 4232ft 0kts
19-Apr-19 09:19 40.775647 -111.958738 87 4232ft 0kts
19-Apr-19 09:19 40.775682 -111.958612 51 4232ft 3kts
19-Apr-19 09:20 40.776984 -111.960631 0 4233ft 13kts
19-Apr-19 09:21 40.782146 -111.960018 359 4233ft 23kts
19-Apr-19 09:22 40.789354 -111.960029 0 4232ft 27kts
19-Apr-19 09:23 40.797058 -111.960030 0 4232ft 26kts
19-Apr-19 09:24 40.799388 -111.960500 270 4233ft 0kts
19-Apr-19 09:25 40.799388 -111.960500 270 4233ft 0kts
19-Apr-19 09:26 40.799388 -111.960500 270 4233ft 0kts
19-Apr-19 09:27 40.799156 -111.961164 219 4232ft 12kts
19-Apr-19 09:28 40.784095 -111.962325 179 4555ft 113kts
19-Apr-19 09:29 40.745409 -111.960282 175 6163ft 154kts
19-Apr-19 09:30 40.702797 -111.958302 187 8110ft 157kts
19-Apr-19 09:31 40.691445 -111.995941 319 9699ft 158kts
19-Apr-19 09:32 40.725110 -112.032252 318 11431ft 155kts
19-Apr-19 09:33 40.764116 -112.072888 314 12061ft 206kts
19-Apr-19 09:34 40.791604 -112.144680 291 11937ft 242kts
19-Apr-19 09:35 40.817950 -112.228187 293 11957ft 249kts
19-Apr-19 09:36 40.824976 -112.318085 268 12012ft 250kts
19-Apr-19 09:37 40.820780 -112.408963 265 12011ft 254kts
19-Apr-19 09:38 40.814721 -112.501985 265 12011ft 255kts
19-Apr-19 09:39 40.808190 -112.595795 265 12010ft 256kts
19-Apr-19 09:40 40.801302 -112.689110 264 12012ft 256kts
19-Apr-19 09:41 40.794343 -112.782523 264 12037ft 255kts
19-Apr-19 09:42 40.787464 -112.876031 264 12039ft 256kts
19-Apr-19 09:43 40.780523 -112.969928 264 12039ft 256kts
19-Apr-19 09:44 40.773530 -113.063599 264 12039ft 256kts
19-Apr-19 09:45 40.766966 -113.157155 265 12039ft 256kts
19-Apr-19 09:46 40.761133 -113.251152 265 12038ft 256kts
19-Apr-19 09:47 40.755653 -113.337087 265 11970ft 200kts
19-Apr-19 09:48 40.751013 -113.409146 265 10754ft 198kts
19-Apr-19 09:49 40.746363 -113.481795 264 9457ft 199kts
19-Apr-19 09:50 40.741676 -113.553031 263 8944ft 188kts
19-Apr-19 09:51 40.756399 -113.612108 329 8968ft 181kts
19-Apr-19 09:52 40.790240 -113.587939 83 8917ft 180kts
19-Apr-19 09:53 40.793543 -113.521870 92 8782ft 186kts
19-Apr-19 09:54 40.765236 -113.503642 243 8931ft 173kts
19-Apr-19 09:55 40.743291 -113.555029 251 8890ft 137kts
19-Apr-19 09:56 40.739167 -113.601518 267 8691ft 138kts
19-Apr-19 09:57 40.735409 -113.654281 261 7501ft 139kts
19-Apr-19 09:58 40.731882 -113.704338 261 6394ft 137kts
19-Apr-19 09:59 40.728550 -113.752985 263 5860ft 129kts
19-Apr-19 10:00 40.725153 -113.801570 262 5938ft 135kts
19-Apr-19 10:01 40.721820 -113.853029 266 5891ft 142kts
19-Apr-19 10:02 40.719075 -113.905267 270 5682ft 148kts
19-Apr-19 10:03 40.718960 -113.953361 269 4990ft 115kts
19-Apr-19 10:04 40.718908 -113.993892 269 4461ft 107kts
19-Apr-19 10:05 40.718924 -114.023847 272 4241ft 18kts
19-Apr-19 10:06 40.719642 -114.024789 357 4241ft 0kts
19-Apr-19 10:07 40.719663 -114.024790 356 4241ft 1kts
19-Apr-19 10:08 40.720025 -114.030800 270 4241ft 27kts
19-Apr-19 10:09 40.723603 -114.037602 315 4241ft 27kts
19-Apr-19 10:10 40.726959 -114.039075 90 4241ft 0kts
19-Apr-19 10:11 40.726959 -114.039075 90 4240ft 0kts
19-Apr-19 10:12 40.726959 -114.039075 90 4240ft 0kts
19-Apr-19 10:13 40.726959 -114.039075 90 4240ft 0kts

Navigation Log

Ident Type
Flight plan parsing failed, navigation log unavailable